Flight Track Log - Related Links

Times and Time Zones

All times are in EDT time to prevent confusion due to time zone crossing. See the N4086E flight status page for this flight to view local times or setup timezone preferences in your user account.

Time Position Orientation Groundspeed Altitude Reporting Facility
EDT Latitude Longitude Course Direction KTS MPH feet Rate Location/Type
Sun 06:23:17 PM 39.2000 -77.9500 67° East 144 166 4,100  Level Potomac TRACON
Sun 06:24:17 PM 39.2167 -77.9000 67° East 152 175 4,700 650 Climbing Potomac TRACON
Sun 06:25:17 PM 39.2333 -77.8500 67° East 155 178 5,400 645 Climbing Potomac TRACON
Sun 06:26:18 PM 39.2500 -77.8000 67° East 160 184 6,000 595 Climbing Potomac TRACON
Sun 06:27:18 PM 39.2667 -77.7667 57° Northeast 164 189 6,600 650 Climbing Potomac TRACON
Sun 06:28:18 PM 39.2833 -77.7000 72° East 166 191 7,300 650 Climbing Potomac TRACON
Sun 06:29:18 PM 39.3000 -77.6500 67° East 165 190 7,900 600 Climbing Potomac TRACON
Sun 06:30:18 PM 39.3333 -77.6000 49° Northeast 171 197 8,500 550 Climbing Potomac TRACON
Sun 06:31:18 PM 39.3500 -77.5333 72° East 176 203 9,000 500 Climbing Potomac TRACON
Sun 06:32:18 PM 39.3667 -77.4833 67° East 183 211 9,500 313 Climbing Potomac TRACON
Sun 06:33:13 PM 39.4000 -77.4167 57° Northeast 197 227 9,600 52 Climbing Potomac TRACON
Sun 06:34:13 PM 39.4167 -77.3333 75° East 209 241 9,600  Level Potomac TRACON
Sun 06:35:13 PM 39.4333 -77.2667 72° East 208 239 9,600  Level Potomac TRACON
Sun 06:36:13 PM 39.4667 -77.2000 57° Northeast 210 242 9,600  Level Potomac TRACON
Sun 06:37:13 PM 39.4833 -77.1333 72° East 209 241 9,600  Level Potomac TRACON
Sun 06:38:13 PM 39.5167 -77.0667 57° Northeast 209 241 9,600  Level Potomac TRACON
Sun 06:39:14 PM 39.5333 -77.0000 72° East 207 238 9,600  Level Potomac TRACON
Sun 06:40:14 PM 39.5500 -76.9333 72° East 208 239 9,600  Level Potomac TRACON
Sun 06:41:14 PM 39.5833 -76.8667 57° Northeast 206 237 9,600 -36 Level Potomac TRACON
Sun 06:43:02 PM 39.6225 -76.7411 68° East 226 260 9,500 -36 Descending New York Center
Sun 06:44:02 PM 39.6447 -76.6700 68° East 211 243 9,500  Level New York Center
Sun 06:45:02 PM 39.6669 -76.6019 67° East 205 236 9,500  Level New York Center
Sun 06:46:02 PM 39.6889 -76.5417 65° Northeast 205 236 9,500  Level New York Center
Sun 06:47:02 PM 39.7131 -76.4681 67° East 205 236 9,500  Level New York Center
Sun 06:48:02 PM 39.7328 -76.4047 68° East 205 236 9,500  Level New York Center
Sun 06:49:02 PM 39.7594 -76.3314 65° Northeast 205 236 9,500  Level New York Center
Sun 06:50:02 PM 39.7808 -76.2708 65° Northeast 205 236 9,500 50 Level New York Center
Sun 06:51:02 PM 39.8072 -76.1972 65° Northeast 205 236 9,600 50 Climbing New York Center
Sun 06:52:02 PM 39.8294 -76.1258 68° East 210 242 9,600  Level New York Center
Sun 06:53:02 PM 39.8508 -76.0653 65° Northeast 205 236 9,600  Level New York Center
Sun 06:54:02 PM 39.8728 -75.9967 67° East 205 236 9,600  Level New York Center
Sun 06:55:02 PM 39.8944 -75.9281 68° East 205 236 9,600  Level New York Center
Sun 06:56:02 PM 39.9164 -75.8539 69° East 205 236 9,600  Level New York Center
Sun 06:57:02 PM 39.9336 -75.7928 70° East 205 236 9,600  Level New York Center
Sun 06:58:02 PM 39.9578 -75.7158 68° East 205 236 9,600  Level New York Center
Sun 06:59:02 PM 39.9750 -75.6547 70° East 210 242 9,600  Level New York Center
Sun 07:00:02 PM 39.9969 -75.5750 70° East 210 242 9,600  Level New York Center
Sun 07:01:02 PM 40.0161 -75.5142 68° East 210 242 9,600  Level New York Center
Sun 07:02:02 PM 40.0381 -75.4342 70° East 204 235 9,600  Level New York Center
Sun 07:03:02 PM 40.0575 -75.3650 70° East 204 235 9,600  Level New York Center
Sun 07:03:35 PM 40.0667 -75.3167 76° East 208 239 9,600  Level Philadelphia TRACON
Sun 07:04:36 PM 40.1000 -75.2500 57° Northeast 208 239 9,600  Level Philadelphia TRACON
Sun 07:05:35 PM 40.1167 -75.1833 72° East 209 241 9,600  Level Philadelphia TRACON
Sun 07:06:30 PM 40.1333 -75.1167 72° East 205 236 9,600  Level Philadelphia TRACON
Sun 07:07:36 PM 40.1500 -75.0500 72° East 207 238 9,600  Level Philadelphia TRACON
Sun 07:08:30 PM 40.1667 -74.9833 72° East 206 237 9,600 -26 Level Philadelphia TRACON
Sun 07:15:14 PM 40.3053 -74.5389 72° East 208 239 9,400 -28 Descending FlightAware ADS-B
Sun 07:15:38 PM 40.3232 -74.4775 69° East 208 239 9,400  Level FlightAware ADS-B
Sun 07:15:55 PM 40.3295 -74.4577 67° East 208 239 9,400  Level FlightAware ADS-B
Sun 07:17:14 PM 40.3570 -74.3680 68° East 207 238 9,400  Level FlightAware ADS-B
Sun 07:17:31 PM 40.3633 -74.3461 69° East 206 237 9,400  Level FlightAware ADS-B
Sun 07:17:46 PM 40.3685 -74.3280 69° East 207 238 9,400 255 Level FlightAware ADS-B
Sun 07:18:18 PM 40.3833 -74.3000 69° East 205 236 9,600 130 Climbing New York TRACON
Sun 07:19:18 PM 40.4000 -74.2333 72° East 207 238 9,600  Level New York TRACON
Sun 07:20:18 PM 40.4167 -74.1500 75° East 208 239 9,600 -200 Level New York TRACON
Sun 07:21:18 PM 40.4500 -74.0833 57° Northeast 219 252 9,200 -500 Descending New York TRACON
Sun 07:22:18 PM 40.4667 -74.0000 75° East 232 267 8,600 -562 Descending New York TRACON
Sun 07:28:04 PM 40.5882 -73.5636 75° East 215 247 5,400 -437 Descending FlightAware ADS-B
Sun 07:29:24 PM 40.6167 -73.4667 75° East 197 227 5,500 43 Climbing New York TRACON
Sun 07:30:24 PM 40.6333 -73.4000 72° East 192 221 5,500 -95 Level New York TRACON
Sun 07:31:30 PM 40.6500 -73.3333 72° East 200 230 5,300 -381 Descending New York TRACON
Sun 07:32:30 PM 40.6667 -73.2500 75° East 211 243 4,700 -600 Descending New York TRACON
Sun 07:33:30 PM 40.6833 -73.1833 72° East 207 238 4,100 -600 Descending New York TRACON
Sun 07:34:30 PM 40.7000 -73.1167 72° East 208 239 3,500 -579 Descending New York TRACON
Sun 07:35:24 PM 40.7167 -73.0500 72° East 196 226 3,000 -579 Descending New York TRACON
Sun 07:36:24 PM 40.7333 -72.9833 72° East 195 224 2,400 -500 Descending New York TRACON
Sun 07:37:24 PM 40.7500 -72.9167 72° East 196 226 2,000 -400 Descending New York TRACON

Login

Don't have an account? Register now (free) for customized features, flight alerts, and more!